Pompeo, Cheri
United StatesWomanBorn 19521998 – 2026Runner id 267872
Events
42
1998 – 2026
Best pace
9.297
km/h · 2007
Best finish
9th
of 19 · 2018
Distance raced
2,266
km · splits not double-counted
Pace over time
km/h · higher is faster
Pace over time: 42 races from 1998 to 2026, ranging from 3.86 to 11.42 kilometres per hour, where higher is faster. A second, age-graded series is drawn above it; the gap between the two is the age credit.
- Actual pace
- Age-graded pace
Results
| Date | Event | Distance | Result | Pace km/h | Placing |
|---|---|---|---|---|---|
| 1998-12-12 | 50mi | 10:26:49 h | 7.702 | 181/269 | |
| 1999-11-13 | Ron Herzog 50KUnited States | 50km | 6:06:32 h | 8.185 | 14/19 |
| 2000-01-15 | Bridle Trails Winter Running FestivalUnited States | 50km | 7:16:40 h | 6.870 | 33/36 |
| 2000-11-11 | Ron Herzog 50KUnited States | 50km | 5:58:14 h | 8.374 | 21/25 |
| 2001-01-13 | Bridle Trails Winter Running FestivalUnited States | 50km | 6:55:00 h | 7.229 | 30/33 |
| 2002-01-12 | Bridle Trails Winter Running FestivalUnited States | 50km | 6:33:57 h | 7.615 | 25/37 |
| 2006-09-16 | 50km | 7:49:56 h | 6.384 | 52/70 | |
| 2006-10-07 | Baker Lake 50K Ultra Trail RunUnited States | 50km | 7:19:11 h | 6.831 | 93/113 |
| 2007-04-22 | 50mi | 9:36:10 h | 8.380 | 40/54 | |
| 2007-05-20 | The Great Ocean Road Int. MarathonAustralia | 45km | 4:50:25 h | 9.297 | 295/362 |
| 2007-06-02 | 50mi | 15:23:54 h | 5.226 | 158/198 | |
| 2007-09-15 | 50km | 7:58:20 h | 6.272 | 68/86 | |
| 2008-03-15 | Chuckanut 50KUnited States | 50km | 7:59:57 h | 6.251 | 290/294 |
| 2008-06-14 | Lake Youngs UltraUnited States | 28.8mi | 5:51:00 h | 7.923 | 74/95 |
| 2008-09-13 | Cle Elum Ridge 50kUnited States | 50km | 9:12:00 h | 5.435 | 79/80 |
| 2009-01-24 | Pigtails Run 50KUnited States | 50km | 6:19:00 h | 7.916 | 39/49 |
| 2009-04-19 | 50km | 5:48:28 h | 8.609 | 40/66 | |
| 2009-05-16 | Watershed Preserve 12 Hr Trail RaceUnited States | 12h | 60.559 km | 5.047 | 44/66 |
| 2009-07-11 | 50km | 7:45:56 h | 6.439 | 28/36 | |
| 2010-01-23 | Pigtails Run 50KUnited States | 50km | 6:45:31 h | 7.398 | 73/80 |
| 2010-06-12 | 28.8mi | 5:43:00 h | 8.108 | 45/61 | |
| 2010-09-18 | 50km | 8:15:21 h | 6.056 | 79/97 | |
| 2011-09-17 | 50km | 8:25:38 h | 5.933 | 69/80 | |
| 2012-01-28 | Lake Youngs Nuts RunUnited States | 50km | 6:26:00 h | 7.772 | 50/57 |
| 2012-02-11 | 12h | 82.076 km | 6.840 | 10/12 | |
| 2013-03-02 | 50km | 7:11:18 h | 6.956 | 47/85 | |
| 2013-09-21 | 50km | 8:54:22 h | 5.614 | 82/92 | |
| 2015-04-26 | 50km | 5:58:20 h | 8.372 | 44/72 | |
| 2015-06-06 | 50km | 6:57:57 h | 7.178 | 46/55 | |
| 2016-03-05 | 50km | 8:08:26 h | 6.142 | 45/62 | |
| 2016-07-10 | 50km | 7:02:52 h | 7.094 | 8/13 | |
| 2016-12-04 | 50km | 6:46:15 h | 7.385 | 33/43 | |
| 2017-02-19 | 50km | 6:20:35 h | 7.883 | 20/42 | |
| 2017-04-22 | 50km | 6:44:58 h | 7.408 | 121/142 | |
| 2018-03-04 | 50km | 6:04:07 h | 8.239 | 33/42 | |
| 2018-05-27 | 50km | 7:17:22 h | 6.859 | 9/19 | |
| 2018-06-16 | 50km | 6:51:17 h | 7.294 | 63/69 | |
| 2019-05-25 | 100km | 18:16:24 h | 5.472 | 26/38 | |
| 2022-05-29 | 50km | 7:27:07 h | 6.710 | 11/12 | |
| 2024-02-17 | Tarawera 50 km UltramarathonNew Zealand | 51.4km | 8:20:55 h | 6.157 | 1118/1545 |
| 2025-03-29 | Dizzy Daze 12 Hour RaceUnited States | 12h | 46.349 km | 3.862 | 49/53 |
| 2026-03-28 | Dizzy Daze 12 Hour RaceUnited States | 12h | 46.349 km | 3.862 | 39/41 |